Pleasant Plains, Arkansas
Current Conditions -  °F | °C
As of 10:15 PM on Friday 19 Dec 2014 (Local Time) from KBVX Reporting Station
Overcast Overcast  
Wind Chill:   Ceiling: 3700
Heat Index:   Visibility: 10mi
Dew Point:   Wind: 0mph
Humidity: 75%   Direction: NA
Pressure: 30.26"   Gusts: NA
Location:  35.55°N, 91.63°W
Report Text: KBVX 200415Z AUTO 00000KT 10SM OVC037 04/00 A3026 RMK AO1
Loading
Personal Weather Stations






























Interactive Weather Map New forecast layout! Learn more

10-Day Weather Forecast

Advertisements
Track Severe Weather on mobile